createdAt,value
2018-12-10T00:01:24.172Z,101002.33
2018-12-10T00:03:51.717Z,101001.00
2018-12-10T00:06:23.302Z,101007.94
2018-12-10T00:08:50.842Z,101007.91
2018-12-10T00:11:18.290Z,101001.84
2018-12-10T00:13:45.699Z,101015.24
2018-12-10T00:16:13.153Z,101018.31
2018-12-10T00:18:40.574Z,101014.43
2018-12-10T00:21:08.004Z,101008.77
2018-12-10T00:23:35.462Z,101015.66
2018-12-10T00:26:02.954Z,101022.58
2018-12-10T00:28:30.381Z,101031.66
2018-12-10T00:30:57.898Z,101036.02
2018-12-10T00:33:25.321Z,101045.12
2018-12-10T00:35:52.750Z,101043.87
2018-12-10T00:38:20.185Z,101053.39
2018-12-10T00:40:47.628Z,101059.03
2018-12-10T00:43:15.237Z,101055.53
2018-12-10T00:45:42.695Z,101055.49
2018-12-10T00:48:10.138Z,101055.86
2018-12-10T00:50:37.551Z,101057.53
2018-12-10T00:53:05.010Z,101073.11
2018-12-10T00:55:32.533Z,101070.47
2018-12-10T00:57:59.989Z,101080.41
2018-12-10T01:00:27.387Z,101082.13
2018-12-10T01:02:54.823Z,101079.89
2018-12-10T01:05:22.474Z,101083.27
2018-12-10T01:07:49.895Z,101091.94
2018-12-10T01:10:17.635Z,101087.99
2018-12-10T01:12:45.069Z,101091.03
2018-12-10T01:15:12.823Z,101097.95
2018-12-10T01:17:40.252Z,101104.05
2018-12-10T01:20:07.931Z,101109.27
2018-12-10T01:22:35.379Z,101116.59
2018-12-10T01:25:02.830Z,101122.25
2018-12-10T01:27:30.247Z,101128.41
2018-12-10T01:29:57.686Z,101129.26
2018-12-10T01:32:25.165Z,101133.62
2018-12-10T01:34:52.599Z,101131.44
2018-12-10T01:37:20.037Z,101138.39
2018-12-10T01:39:47.464Z,101144.44
2018-12-10T01:42:14.886Z,101156.56
2018-12-10T01:44:42.313Z,101155.69
2018-12-10T01:47:09.837Z,101164.33
2018-12-10T01:49:37.234Z,101169.95
2018-12-10T01:52:04.670Z,101163.86
2018-12-10T01:54:32.087Z,101172.03
2018-12-10T01:56:59.531Z,101166.42
2018-12-10T01:59:26.960Z,101172.88
2018-12-10T02:01:54.513Z,101171.53
2018-12-10T02:04:22.042Z,101175.83
2018-12-10T02:06:49.473Z,101175.80
2018-12-10T02:09:17.071Z,101179.73
2018-12-10T02:11:44.530Z,101182.80
2018-12-10T02:14:11.957Z,101178.10
2018-12-10T02:16:44.361Z,101188.52
2018-12-10T02:19:11.789Z,101199.25
2018-12-10T02:21:43.418Z,101197.03
2018-12-10T02:24:11.028Z,101192.73
2018-12-10T02:26:38.490Z,101195.77
2018-12-10T02:29:11.418Z,101208.33
2018-12-10T02:31:38.854Z,101220.00
2018-12-10T02:34:06.297Z,101221.81
2018-12-10T02:36:33.723Z,101208.33
2018-12-10T02:39:01.435Z,101191.88
2018-12-10T02:41:29.099Z,101209.59
2018-12-10T02:43:56.593Z,101196.68
2018-12-10T02:46:24.258Z,101202.70
2018-12-10T02:48:51.697Z,101202.25
2018-12-10T02:51:19.223Z,101201.88
2018-12-10T02:53:46.648Z,101198.01
2018-12-10T02:56:14.166Z,101206.27
2018-12-10T02:58:41.618Z,101212.34
2018-12-10T03:01:09.024Z,101210.63
2018-12-10T03:03:36.753Z,101205.44
2018-12-10T03:06:04.198Z,101208.00
2018-12-10T03:08:31.641Z,101215.41
2018-12-10T03:10:59.199Z,101215.84
2018-12-10T03:13:26.623Z,101214.08
2018-12-10T03:15:54.031Z,101224.75
2018-12-10T03:18:21.496Z,101225.55
2018-12-10T03:20:49.128Z,101221.66
2018-12-10T03:23:16.647Z,101231.97
2018-12-10T03:25:44.390Z,101229.31
2018-12-10T03:28:11.794Z,101226.27
2018-12-10T03:30:39.312Z,101227.67
2018-12-10T03:33:06.727Z,101231.18
2018-12-10T03:35:34.250Z,101219.95
2018-12-10T03:38:01.662Z,101226.81
2018-12-10T03:40:29.084Z,101229.82
2018-12-10T03:42:56.499Z,101225.86
2018-12-10T03:45:23.936Z,101221.59
2018-12-10T03:47:51.356Z,101225.05
2018-12-10T03:50:18.976Z,101232.73
2018-12-10T03:52:46.394Z,101233.95
2018-12-10T03:55:13.958Z,101235.70
2018-12-10T03:57:41.369Z,101237.06
2018-12-10T04:00:08.858Z,101252.77
2018-12-10T04:02:36.299Z,101242.00
2018-12-10T04:05:04.357Z,101234.63
2018-12-10T04:07:31.791Z,101241.62
2018-12-10T04:09:59.381Z,101238.91
2018-12-10T04:12:26.832Z,101250.48
2018-12-10T04:14:54.243Z,101243.05
2018-12-10T04:17:22.051Z,101249.05
2018-12-10T04:19:49.476Z,101259.53
2018-12-10T04:22:17.059Z,101262.66
2018-12-10T04:24:45.742Z,101262.66
2018-12-10T04:27:13.352Z,101268.27
2018-12-10T04:29:40.768Z,101273.11
2018-12-10T04:32:08.192Z,101270.11
2018-12-10T04:34:35.633Z,101268.81
2018-12-10T04:37:03.206Z,101265.67
2018-12-10T04:39:30.627Z,101274.68
2018-12-10T04:41:58.058Z,101281.95
2018-12-10T04:44:25.586Z,101284.55
2018-12-10T04:46:53.042Z,101285.84
2018-12-10T04:49:20.478Z,101284.95
2018-12-10T04:51:48.019Z,101286.70
2018-12-10T04:54:15.560Z,101289.80
2018-12-10T04:56:42.962Z,101297.52
2018-12-10T04:59:10.396Z,101293.70
2018-12-10T05:01:37.829Z,101303.66
2018-12-10T05:04:05.319Z,101312.75
2018-12-10T05:06:32.749Z,101317.94
2018-12-10T05:09:00.156Z,101314.05
2018-12-10T05:11:27.588Z,101320.94
2018-12-10T05:13:55.209Z,101317.34
2018-12-10T05:16:22.622Z,101321.09
2018-12-10T05:18:50.047Z,101318.87
2018-12-10T05:21:17.535Z,101311.90
2018-12-10T05:23:44.960Z,101326.13
2018-12-10T05:26:12.435Z,101329.61
2018-12-10T05:28:39.939Z,101333.54
2018-12-10T05:31:07.460Z,101328.83
2018-12-10T05:33:34.926Z,101319.27
2018-12-10T05:36:02.338Z,101324.09
2018-12-10T05:38:29.759Z,101331.02
2018-12-10T05:40:57.285Z,101337.51
2018-12-10T05:43:24.700Z,101340.17
2018-12-10T05:45:52.135Z,101341.40
2018-12-10T05:48:19.654Z,101343.91
2018-12-10T05:50:47.170Z,101346.47
2018-12-10T05:53:14.582Z,101353.39
2018-12-10T05:55:41.998Z,101356.77
2018-12-10T05:58:09.431Z,101348.09
2018-12-10T06:00:36.866Z,101355.46
2018-12-10T06:03:04.306Z,101357.53
2018-12-10T06:05:31.705Z,101346.19
2018-12-10T06:07:59.159Z,101360.00
2018-12-10T06:10:26.570Z,101364.73
2018-12-10T06:12:54.009Z,101367.78
2018-12-10T06:15:21.575Z,101369.59
2018-12-10T06:17:49.046Z,101382.08
2018-12-10T06:20:16.511Z,101385.16
2018-12-10T06:22:43.954Z,101378.27
2018-12-10T06:25:11.591Z,101388.20
2018-12-10T06:27:39.211Z,101384.31
2018-12-10T06:30:07.004Z,101388.60
2018-12-10T06:32:34.499Z,101385.20
2018-12-10T06:35:01.950Z,101389.98
2018-12-10T06:37:37.345Z,101392.66
2018-12-10T06:39:58.921Z,101393.06
2018-12-10T06:42:26.375Z,101396.63
2018-12-10T06:44:53.789Z,101401.50
2018-12-10T06:47:21.198Z,101393.34
2018-12-10T06:49:48.626Z,101396.80
2018-12-10T06:52:16.053Z,101401.50
2018-12-10T06:54:44.234Z,101393.35
2018-12-10T06:57:11.654Z,101398.65
2018-12-10T06:59:39.103Z,101403.80
2018-12-10T07:02:06.523Z,101401.98
2018-12-10T07:04:34.067Z,101402.55
2018-12-10T07:07:01.469Z,101396.09
2018-12-10T07:09:28.899Z,101403.48
2018-12-10T07:11:56.314Z,101408.17
2018-12-10T07:14:23.912Z,101415.41
2018-12-10T07:16:51.343Z,101414.95
2018-12-10T07:19:18.797Z,101410.21
2018-12-10T07:21:46.232Z,101420.06
2018-12-10T07:24:13.633Z,101425.56
2018-12-10T07:26:41.072Z,101428.52
2018-12-10T07:29:08.606Z,101425.89
2018-12-10T07:31:36.010Z,101431.11
2018-12-10T07:34:03.474Z,101435.45
2018-12-10T07:36:31.054Z,101439.88
2018-12-10T07:38:58.608Z,101444.97
2018-12-10T07:41:26.234Z,101454.09
2018-12-10T07:43:53.767Z,101458.96
2018-12-10T07:46:21.714Z,101455.97
2018-12-10T07:48:49.139Z,101448.19
2018-12-10T07:51:16.639Z,101454.14
2018-12-10T07:53:44.052Z,101446.27
2018-12-10T07:56:11.478Z,101449.72
2018-12-10T07:58:38.902Z,101459.69
2018-12-10T08:01:06.408Z,101464.30
2018-12-10T08:03:33.819Z,101465.55
2018-12-10T08:06:01.254Z,101465.86
2018-12-10T08:08:28.681Z,101473.68
2018-12-10T08:10:56.111Z,101483.74
2018-12-10T08:13:23.528Z,101480.83
2018-12-10T08:15:50.997Z,101492.15
2018-12-10T08:18:18.411Z,101494.34
2018-12-10T08:20:45.844Z,101492.37
2018-12-10T08:23:13.355Z,101495.93
2018-12-10T08:25:40.917Z,101494.95
2018-12-10T08:28:08.438Z,101490.58
2018-12-10T08:30:35.854Z,101491.11
2018-12-10T08:33:03.403Z,101491.19
2018-12-10T08:35:30.973Z,101494.15
2018-12-10T08:37:58.446Z,101497.59
2018-12-10T08:40:25.887Z,101496.30
2018-12-10T08:42:53.527Z,101503.80
2018-12-10T08:45:20.975Z,101501.21
2018-12-10T08:47:48.540Z,101507.30
2018-12-10T08:50:15.994Z,101509.97
2018-12-10T08:52:43.410Z,101512.25
2018-12-10T08:55:10.835Z,101512.13
2018-12-10T08:57:38.278Z,101519.55
2018-12-10T09:00:06.965Z,101524.38
2018-12-10T09:02:34.730Z,101528.03
2018-12-10T09:05:02.167Z,101528.56
2018-12-10T09:07:29.621Z,101525.12
2018-12-10T09:09:57.165Z,101523.86
2018-12-10T09:12:24.730Z,101523.09
2018-12-10T09:14:52.281Z,101522.39
2018-12-10T09:17:19.702Z,101526.81
2018-12-10T09:19:47.237Z,101526.45
2018-12-10T09:22:14.669Z,101531.60
2018-12-10T09:24:42.184Z,101534.20
2018-12-10T09:27:09.638Z,101548.11
2018-12-10T09:29:37.196Z,101546.73
2018-12-10T09:32:04.810Z,101543.44
2018-12-10T09:34:32.436Z,101542.70
2018-12-10T09:36:59.848Z,101543.27
2018-12-10T09:39:27.315Z,101543.63
2018-12-10T09:41:54.738Z,101528.90
2018-12-10T09:44:22.218Z,101523.30
2018-12-10T09:46:58.443Z,101531.16
2018-12-10T09:49:19.241Z,101529.83
2018-12-10T09:51:47.062Z,101538.84
2018-12-10T09:54:14.702Z,101530.57
2018-12-10T09:56:42.324Z,101525.89
2018-12-10T09:59:09.760Z,101525.97
2018-12-10T10:01:37.272Z,101538.21
2018-12-10T10:04:04.762Z,101541.73
2018-12-10T10:06:32.225Z,101545.73
2018-12-10T10:08:59.954Z,101548.52
2018-12-10T10:11:27.390Z,101546.36
2018-12-10T10:13:54.924Z,101547.08
2018-12-10T10:16:23.003Z,101545.36
2018-12-10T10:18:50.457Z,101558.77
2018-12-10T10:21:17.915Z,101555.25
2018-12-10T10:23:45.890Z,101544.34
2018-12-10T10:26:13.364Z,101566.75
2018-12-10T10:28:40.935Z,101562.30
2018-12-10T10:31:08.367Z,101547.56
2018-12-10T10:33:35.825Z,101547.60
2018-12-10T10:36:03.322Z,101540.30
2018-12-10T10:38:30.751Z,101539.44
2018-12-10T10:40:58.187Z,101533.83
2018-12-10T10:43:25.658Z,101535.13
2018-12-10T10:45:53.088Z,101533.60
2018-12-10T10:48:20.545Z,101530.52
2018-12-10T10:50:48.060Z,101526.70
2018-12-10T10:53:15.551Z,101527.69
2018-12-10T10:55:43.099Z,101516.96
2018-12-10T10:58:10.553Z,101529.52
2018-12-10T11:00:43.727Z,101526.73
2018-12-10T11:06:11.679Z,101529.02
2018-12-10T11:08:39.166Z,101539.11
2018-12-10T11:11:06.645Z,101539.48
2018-12-10T11:13:34.053Z,101546.80
2018-12-10T11:16:01.508Z,101543.41
2018-12-10T11:18:28.939Z,101541.05
2018-12-10T11:20:56.399Z,101542.25
2018-12-10T11:23:23.858Z,101539.99
2018-12-10T11:25:51.505Z,101533.88
2018-12-10T11:28:19.263Z,101540.92
2018-12-10T11:30:46.739Z,101536.23
2018-12-10T11:33:14.210Z,101537.61
2018-12-10T11:35:41.822Z,101532.41
2018-12-10T11:38:09.266Z,101522.11
2018-12-10T11:40:36.715Z,101523.85
2018-12-10T11:43:04.150Z,101533.77
2018-12-10T11:45:31.595Z,101539.72
2018-12-10T11:47:59.163Z,101536.20
2018-12-10T11:50:26.831Z,101535.34
2018-12-10T11:52:54.258Z,101539.72
2018-12-10T11:55:21.848Z,101535.69
2018-12-10T11:57:49.264Z,101523.61
2018-12-10T12:00:16.786Z,101528.37
2018-12-10T12:02:44.234Z,101522.25
2018-12-10T12:05:11.793Z,101525.30
2018-12-10T12:07:39.236Z,101521.29
2018-12-10T12:10:06.947Z,101524.22
2018-12-10T12:12:34.467Z,101532.42
2018-12-10T12:15:01.895Z,101538.40
2018-12-10T12:17:29.337Z,101526.23
2018-12-10T12:19:56.735Z,101518.84
2018-12-10T12:22:24.199Z,101510.23
2018-12-10T12:24:51.605Z,101506.38
2018-12-10T12:27:19.159Z,101511.16
2018-12-10T12:29:46.583Z,101511.20
2018-12-10T12:32:14.051Z,101527.34
2018-12-10T12:34:41.486Z,101526.11
2018-12-10T12:37:08.918Z,101527.44
2018-12-10T12:39:36.561Z,101521.59
2018-12-10T12:42:04.068Z,101511.58
2018-12-10T12:44:31.618Z,101510.76
2018-12-10T12:46:59.325Z,101520.80
2018-12-10T12:49:26.847Z,101519.95
2018-12-10T12:51:54.340Z,101511.70
2018-12-10T12:54:21.886Z,101500.97
2018-12-10T12:56:49.347Z,101500.66
2018-12-10T12:59:16.782Z,101502.38
2018-12-10T13:01:49.104Z,101500.25
2018-12-10T13:04:14.010Z,101495.52
2018-12-10T13:06:41.541Z,101499.67
2018-12-10T13:09:08.975Z,101501.20
2018-12-10T13:11:37.182Z,101491.98
2018-12-10T13:14:04.778Z,101491.58
2018-12-10T13:16:32.198Z,101490.42
2018-12-10T13:18:59.668Z,101498.67
2018-12-10T13:21:27.206Z,101493.91
2018-12-10T13:23:54.735Z,101502.51
2018-12-10T13:26:22.251Z,101502.04
2018-12-10T13:28:49.676Z,101504.43
2018-12-10T13:31:17.115Z,101508.38
2018-12-10T13:33:44.545Z,101523.61
2018-12-10T13:36:11.977Z,101512.27
2018-12-10T13:38:39.380Z,101520.09
2018-12-10T13:41:06.825Z,101523.97
2018-12-10T13:43:34.246Z,101520.06
2018-12-10T13:46:01.776Z,101514.36
2018-12-10T13:48:29.323Z,101516.52
2018-12-10T13:50:56.765Z,101515.27
2018-12-10T13:53:24.271Z,101522.64
2018-12-10T13:55:51.873Z,101521.33
2018-12-10T13:58:19.323Z,101520.09
2018-12-10T14:00:51.052Z,101524.47
2018-12-10T14:03:16.720Z,101536.17
2018-12-10T14:05:47.530Z,101531.00
2018-12-10T14:08:13.599Z,101523.58
2018-12-10T14:10:41.007Z,101519.17
2018-12-10T14:13:08.447Z,101526.89
2018-12-10T14:15:35.862Z,101530.32
2018-12-10T14:18:03.369Z,101526.86
2018-12-10T14:20:30.852Z,101525.63
2018-12-10T14:22:58.398Z,101526.54
2018-12-10T14:25:25.960Z,101533.92
2018-12-10T14:27:53.590Z,101528.28
2018-12-10T14:30:21.173Z,101524.35
2018-12-10T14:32:48.672Z,101536.88
2018-12-10T14:35:16.098Z,101535.49
2018-12-10T14:37:43.615Z,101544.09
2018-12-10T14:40:11.145Z,101543.55
2018-12-10T14:42:55.616Z,101542.15
2018-12-10T14:45:23.338Z,101543.72
2018-12-10T14:47:51.443Z,101541.98
2018-12-10T14:50:18.952Z,101548.48
2018-12-10T14:52:46.487Z,101548.37
2018-12-10T14:55:13.937Z,101549.09
2018-12-10T14:57:41.427Z,101550.80
2018-12-10T15:00:10.392Z,101556.81
2018-12-10T15:02:37.803Z,101558.07
2018-12-10T15:05:06.674Z,101566.23
2018-12-10T15:07:34.106Z,101566.61
2018-12-10T15:10:01.544Z,101565.42
2018-12-10T15:12:28.957Z,101559.41
2018-12-10T15:14:56.398Z,101564.60
2018-12-10T15:17:23.849Z,101561.12
2018-12-10T15:19:51.406Z,101567.12
2018-12-10T15:22:18.836Z,101564.97
2018-12-10T15:24:46.327Z,101583.20
2018-12-10T15:27:13.861Z,101582.02
2018-12-10T15:29:41.286Z,101589.77
2018-12-10T15:32:08.699Z,101586.23
2018-12-10T15:34:41.154Z,101589.09
2018-12-10T15:37:08.603Z,101591.98
2018-12-10T15:39:36.014Z,101588.85
2018-12-10T15:42:03.533Z,101590.52
2018-12-10T15:44:30.955Z,101587.31
2018-12-10T15:46:58.372Z,101585.48
2018-12-10T15:49:25.908Z,101591.89
2018-12-10T15:51:53.347Z,101591.80
2018-12-10T15:54:20.835Z,101592.60
2018-12-10T15:56:48.306Z,101591.13
2018-12-10T15:59:15.724Z,101598.02
2018-12-10T16:01:43.155Z,101605.35
2018-12-10T16:04:10.564Z,101610.37
2018-12-10T16:06:38.021Z,101612.47
2018-12-10T16:09:06.903Z,101612.91
2018-12-10T16:11:34.368Z,101615.95
2018-12-10T16:14:01.766Z,101612.02
2018-12-10T16:16:29.191Z,101618.91
2018-12-10T16:18:56.638Z,101620.05
2018-12-10T16:21:24.057Z,101619.11
2018-12-10T16:23:52.430Z,101620.77
2018-12-10T16:26:19.842Z,101619.83
2018-12-10T16:28:47.290Z,101622.28
2018-12-10T16:31:14.704Z,101633.89
2018-12-10T16:33:42.336Z,101631.41
2018-12-10T16:36:10.192Z,101637.59
2018-12-10T16:38:37.623Z,101636.38
2018-12-10T16:41:05.198Z,101639.86
2018-12-10T16:43:32.631Z,101638.89
2018-12-10T16:46:00.117Z,101643.92
2018-12-10T16:48:27.570Z,101653.80
2018-12-10T16:50:54.989Z,101652.90
2018-12-10T16:53:22.406Z,101657.63
2018-12-10T16:55:49.841Z,101656.38
2018-12-10T16:58:17.336Z,101653.00
2018-12-10T17:00:44.754Z,101653.50
2018-12-10T17:03:12.174Z,101652.20
2018-12-10T17:05:39.689Z,101656.05
2018-12-10T17:08:07.315Z,101647.36
2018-12-10T17:10:34.743Z,101655.89
2018-12-10T17:13:02.284Z,101657.14
2018-12-10T17:15:29.720Z,101660.08
2018-12-10T17:17:57.160Z,101666.56
2018-12-10T17:20:24.605Z,101671.80
2018-12-10T17:22:52.381Z,101665.25
2018-12-10T17:25:19.805Z,101662.22
2018-12-10T17:27:47.324Z,101658.88
2018-12-10T17:30:14.746Z,101665.38
2018-12-10T17:32:42.191Z,101660.92
2018-12-10T17:35:09.601Z,101666.10
2018-12-10T17:37:37.087Z,101666.61
2018-12-10T17:40:05.076Z,101669.20
2018-12-10T17:42:39.538Z,101673.89
2018-12-10T17:45:08.734Z,101674.72
2018-12-10T17:47:36.223Z,101671.14
2018-12-10T17:50:04.712Z,101675.47
2018-12-10T17:52:32.181Z,101668.89
2018-12-10T17:55:00.182Z,101671.86
2018-12-10T17:57:27.607Z,101669.22
2018-12-10T17:59:55.323Z,101664.77
2018-12-10T18:02:26.821Z,101667.30
2018-12-10T18:04:54.570Z,101673.29
2018-12-10T18:07:22.004Z,101673.23
2018-12-10T18:09:49.586Z,101674.97
2018-12-10T18:12:17.006Z,101681.80
2018-12-10T18:14:44.450Z,101680.45
2018-12-10T18:17:11.978Z,101679.94
2018-12-10T18:19:39.418Z,101685.13
2018-12-10T18:22:06.835Z,101687.65
2018-12-10T18:24:34.273Z,101683.72
2018-12-10T18:27:01.771Z,101694.97
2018-12-10T18:29:29.231Z,101692.78
2018-12-10T18:31:56.926Z,101690.13
2018-12-10T18:34:24.357Z,101692.67
2018-12-10T18:36:51.778Z,101690.47
2018-12-10T18:39:19.237Z,101692.16
2018-12-10T18:41:46.675Z,101692.93
2018-12-10T18:44:14.123Z,101689.45
2018-12-10T18:46:41.649Z,101696.31
2018-12-10T18:49:09.122Z,101688.48
2018-12-10T18:51:36.574Z,101687.53
2018-12-10T18:54:04.069Z,101687.08
2018-12-10T18:56:31.787Z,101693.16
2018-12-10T18:58:59.286Z,101689.66
2018-12-10T19:01:26.709Z,101688.30
2018-12-10T19:03:54.132Z,101689.21
2018-12-10T19:06:21.562Z,101687.86
2018-12-10T19:08:49.680Z,101694.28
2018-12-10T19:11:17.565Z,101704.17
2018-12-10T19:13:49.849Z,101708.96
2018-12-10T19:16:14.601Z,101694.59
2018-12-10T19:18:42.034Z,101698.03
2018-12-10T19:21:09.532Z,101697.58
2018-12-10T19:23:36.969Z,101701.86
2018-12-10T19:26:04.485Z,101704.38
2018-12-10T19:28:31.950Z,101702.63
2018-12-10T19:30:59.360Z,101699.27
2018-12-10T19:33:26.964Z,101702.63
2018-12-10T19:35:54.492Z,101704.72
2018-12-10T19:38:21.948Z,101696.49
2018-12-10T19:40:49.355Z,101688.70
2018-12-10T19:43:16.803Z,101696.09
2018-12-10T19:45:44.225Z,101697.33
2018-12-10T19:48:11.845Z,101701.15
2018-12-10T19:50:39.267Z,101699.85
2018-12-10T19:53:06.699Z,101706.73
2018-12-10T19:55:34.133Z,101701.53
2018-12-10T19:58:01.668Z,101704.20
2018-12-10T20:00:29.122Z,101713.78
2018-12-10T20:02:56.811Z,101709.95
2018-12-10T20:05:26.283Z,101709.52
2018-12-10T20:07:53.774Z,101715.66
2018-12-10T20:10:21.192Z,101715.72
2018-12-10T20:12:48.647Z,101716.61
2018-12-10T20:15:16.190Z,101717.91
2018-12-10T20:17:43.598Z,101727.30
2018-12-10T20:20:11.061Z,101726.57
2018-12-10T20:22:38.503Z,101734.94
2018-12-10T20:25:07.185Z,101738.87
2018-12-10T20:27:34.696Z,101732.34
2018-12-10T20:30:07.323Z,101727.95
2018-12-10T20:32:34.781Z,101725.34
2018-12-10T20:35:02.476Z,101719.66
2018-12-10T20:37:30.318Z,101723.47
2018-12-10T20:39:57.970Z,101725.22
2018-12-10T20:42:25.412Z,101717.52
2018-12-10T20:44:52.837Z,101718.41
2018-12-10T20:47:20.382Z,101713.64
2018-12-10T20:49:47.819Z,101717.64
2018-12-10T20:52:15.261Z,101729.30
2018-12-10T20:54:42.700Z,101716.61
2018-12-10T20:57:10.151Z,101719.03
2018-12-10T20:59:37.583Z,101723.73
2018-12-10T21:02:05.207Z,101721.43
2018-12-10T21:04:32.713Z,101723.55
2018-12-10T21:07:00.183Z,101715.67
2018-12-10T21:09:27.627Z,101722.91
2018-12-10T21:11:55.099Z,101721.11
2018-12-10T21:14:22.531Z,101714.52
2018-12-10T21:16:49.987Z,101714.95
2018-12-10T21:19:17.464Z,101721.82
2018-12-10T21:21:45.070Z,101720.12
2018-12-10T21:24:12.522Z,101727.00
2018-12-10T21:26:39.942Z,101721.36
2018-12-10T21:29:07.483Z,101720.12
2018-12-10T21:31:34.923Z,101715.34
2018-12-10T21:34:02.360Z,101710.23
2018-12-10T21:36:29.922Z,101716.75
2018-12-10T21:38:57.347Z,101718.52
2018-12-10T21:41:25.077Z,101718.64
2018-12-10T21:43:52.506Z,101711.72
2018-12-10T21:46:19.939Z,101719.86
2018-12-10T21:48:47.393Z,101716.84
2018-12-10T21:51:14.822Z,101719.43
2018-12-10T21:53:42.268Z,101711.20
2018-12-10T21:56:09.796Z,101721.23
2018-12-10T21:58:37.508Z,101719.22
2018-12-10T22:01:04.954Z,101715.80
2018-12-10T22:03:32.462Z,101718.38
2018-12-10T22:06:00.795Z,101714.94
2018-12-10T22:08:28.256Z,101720.06
2018-12-10T22:10:55.844Z,101716.97
2018-12-10T22:13:23.473Z,101719.55
2018-12-10T22:15:50.943Z,101721.22
2018-12-10T22:18:18.383Z,101718.13
2018-12-10T22:20:45.948Z,101719.48
2018-12-10T22:23:13.600Z,101716.61
2018-12-10T22:25:41.054Z,101717.98
2018-12-10T22:28:08.494Z,101718.10
2018-12-10T22:30:35.926Z,101723.75
2018-12-10T22:33:03.511Z,101709.52
2018-12-10T22:35:30.960Z,101713.62
2018-12-10T22:37:58.475Z,101711.94
2018-12-10T22:40:26.107Z,101718.88
2018-12-10T22:42:53.648Z,101725.01
2018-12-10T22:45:21.597Z,101720.73
2018-12-10T22:47:49.052Z,101723.78
2018-12-10T22:50:16.664Z,101722.55
2018-12-10T22:52:44.091Z,101727.86
2018-12-10T22:55:11.545Z,101726.97
2018-12-10T22:57:39.203Z,101733.36
2018-12-10T23:00:09.027Z,101725.48
2018-12-10T23:02:36.576Z,101735.39
2018-12-10T23:05:04.461Z,101731.48
2018-12-10T23:07:31.920Z,101739.25
2018-12-10T23:09:59.319Z,101733.97
2018-12-10T23:12:26.759Z,101737.51
2018-12-10T23:14:54.203Z,101732.66
2018-12-10T23:17:21.766Z,101731.70
2018-12-10T23:19:49.434Z,101732.03
2018-12-10T23:22:17.034Z,101736.30
2018-12-10T23:24:44.516Z,101733.64
2018-12-10T23:27:11.960Z,101742.70
2018-12-10T23:29:39.394Z,101746.48
2018-12-10T23:32:06.818Z,101743.42
2018-12-10T23:34:34.268Z,101749.84
2018-12-10T23:37:01.787Z,101747.70
2018-12-10T23:39:29.226Z,101744.26
2018-12-10T23:41:56.686Z,101747.20
2018-12-10T23:47:22.338Z,101749.72
2018-12-10T23:49:49.779Z,101750.15
2018-12-10T23:52:17.191Z,101750.98
2018-12-10T23:54:44.622Z,101754.77
2018-12-10T23:57:12.042Z,101747.91
2018-12-10T23:59:39.790Z,101748.02
